トビリシ の空港の天気 - METARとTAF

トビリシ国際空港 ( UGTB / TBS ) - ジョージア トビリシ
飛行場実況気象(Metar)
観測時間10/22 16:00 GET (10/22 12:00 UTC)
風向・風速不定 1m/s
視程10km以上
天気現象
なし
気温19℃
湿度56%
気圧1025hPa
METARUGTB 221200Z VRB01KT CAVOK 19/10 Q1025 NOSIG
過去の天気等 Google飛行場航空写真 Wunderground天気予報

過去48時間のMETAR

飛行場予報(TAF)
発表時間: 10/22 15:00 GET (10/22 11:00 UTC)
予報対象時間: 22日16時 GET ~ 23日16時 GET
風向・風速不定 1m/s
視程10km以上
全天の4割程度の雲 雲底高度 910m
22日22時 GET ~ 22日24時 GET に徐々に
全天の4割程度の雲 雲底高度 430m
全天の8割程度の雲 雲底高度 910m
23日2時 GET ~ 23日10時 GET に一時的に
視程2000m
天気現象もや
全天の8割程度の雲 雲底高度 120m
全天を覆う雲 雲底高度 300m
23日10時 GET ~ 23日13時 GET に徐々に
視程10km以上
なし
TAF UGTB 221100Z 2212/2312 VRB02KT 9999 SCT030 TX20/2312Z TN12/2303Z
BECMG 2218/2220 SCT014 BKN030
TEMPO 2222/2306 2000 BR BKN004 OVC010
BECMG 2306/2309 CAVOK